sensor_id;sensor_type;location;lat;lon;timestamp;temperature;humidity
21261;DHT22;10788;47.930;9.766;2022-08-18T00:02:04;17.10;99.90
21261;DHT22;10788;47.930;9.766;2022-08-18T00:04:31;17.20;99.90
21261;DHT22;10788;47.930;9.766;2022-08-18T00:06:59;17.20;99.90
21261;DHT22;10788;47.930;9.766;2022-08-18T00:09:24;17.10;99.90
21261;DHT22;10788;47.930;9.766;2022-08-18T00:11:50;17.00;99.90
21261;DHT22;10788;47.930;9.766;2022-08-18T00:14:18;17.00;99.90
21261;DHT22;10788;47.930;9.766;2022-08-18T00:16:44;17.00;99.90
21261;DHT22;10788;47.930;9.766;2022-08-18T00:19:10;16.90;99.90
21261;DHT22;10788;47.930;9.766;2022-08-18T00:21:36;16.80;99.90
21261;DHT22;10788;47.930;9.766;2022-08-18T00:24:02;16.80;99.90
21261;DHT22;10788;47.930;9.766;2022-08-18T00:26:28;16.70;99.90
21261;DHT22;10788;47.930;9.766;2022-08-18T00:28:55;16.70;99.90
21261;DHT22;10788;47.930;9.766;2022-08-18T00:31:20;16.60;99.90
21261;DHT22;10788;47.930;9.766;2022-08-18T00:33:46;16.50;99.90
21261;DHT22;10788;47.930;9.766;2022-08-18T00:36:12;16.40;99.90
21261;DHT22;10788;47.930;9.766;2022-08-18T00:38:38;16.50;99.90
21261;DHT22;10788;47.930;9.766;2022-08-18T00:41:04;16.50;99.90
21261;DHT22;10788;47.930;9.766;2022-08-18T00:43:46;16.40;99.90
21261;DHT22;10788;47.930;9.766;2022-08-18T00:46:30;16.40;99.90
21261;DHT22;10788;47.930;9.766;2022-08-18T00:48:58;16.50;99.90
21261;DHT22;10788;47.930;9.766;2022-08-18T00:51:40;16.40;99.90
21261;DHT22;10788;47.930;9.766;2022-08-18T00:54:11;16.40;99.90
21261;DHT22;10788;47.930;9.766;2022-08-18T00:56:51;16.40;99.90
21261;DHT22;10788;47.930;9.766;2022-08-18T01:01:55;16.20;99.90
21261;DHT22;10788;47.930;9.766;2022-08-18T01:07:19;16.30;99.90
21261;DHT22;10788;47.930;9.766;2022-08-18T01:09:48;16.30;99.90
21261;DHT22;10788;47.930;9.766;2022-08-18T01:12:16;16.20;99.90
21261;DHT22;10788;47.930;9.766;2022-08-18T01:14:42;16.20;99.90
21261;DHT22;10788;47.930;9.766;2022-08-18T01:17:08;16.20;99.90
21261;DHT22;10788;47.930;9.766;2022-08-18T01:19:52;16.20;99.90
21261;DHT22;10788;47.930;9.766;2022-08-18T01:25:06;16.20;99.90
21261;DHT22;10788;47.930;9.766;2022-08-18T01:27:52;16.20;99.90
21261;DHT22;10788;47.930;9.766;2022-08-18T01:30:21;16.10;99.90
21261;DHT22;10788;47.930;9.766;2022-08-18T01:32:51;16.20;99.90
21261;DHT22;10788;47.930;9.766;2022-08-18T01:35:19;16.10;99.90
21261;DHT22;10788;47.930;9.766;2022-08-18T01:37:46;16.10;99.90
21261;DHT22;10788;47.930;9.766;2022-08-18T01:40:14;16.10;99.90
21261;DHT22;10788;47.930;9.766;2022-08-18T01:42:42;16.20;99.90
21261;DHT22;10788;47.930;9.766;2022-08-18T01:45:15;16.10;99.90
21261;DHT22;10788;47.930;9.766;2022-08-18T01:47:41;16.10;99.90
21261;DHT22;10788;47.930;9.766;2022-08-18T01:50:07;16.10;99.90
21261;DHT22;10788;47.930;9.766;2022-08-18T01:52:35;16.00;99.90
21261;DHT22;10788;47.930;9.766;2022-08-18T01:55:02;16.00;99.90
21261;DHT22;10788;47.930;9.766;2022-08-18T01:57:28;16.00;99.90
21261;DHT22;10788;47.930;9.766;2022-08-18T01:59:53;16.00;99.90
21261;DHT22;10788;47.930;9.766;2022-08-18T02:02:24;16.10;99.90
21261;DHT22;10788;47.930;9.766;2022-08-18T02:04:58;16.10;99.90
21261;DHT22;10788;47.930;9.766;2022-08-18T02:07:24;16.00;99.90
21261;DHT22;10788;47.930;9.766;2022-08-18T02:09:50;16.10;99.90
21261;DHT22;10788;47.930;9.766;2022-08-18T02:12:15;16.00;99.90
21261;DHT22;10788;47.930;9.766;2022-08-18T02:14:41;16.00;99.90
21261;DHT22;10788;47.930;9.766;2022-08-18T02:17:09;16.00;99.90
21261;DHT22;10788;47.930;9.766;2022-08-18T02:19:44;15.90;99.90
21261;DHT22;10788;47.930;9.766;2022-08-18T02:22:12;15.90;99.90
21261;DHT22;10788;47.930;9.766;2022-08-18T02:24:39;15.90;99.90
21261;DHT22;10788;47.930;9.766;2022-08-18T02:27:05;15.90;99.90
21261;DHT22;10788;47.930;9.766;2022-08-18T02:29:32;15.90;99.90
21261;DHT22;10788;47.930;9.766;2022-08-18T02:31:57;15.90;99.90
21261;DHT22;10788;47.930;9.766;2022-08-18T02:34:23;15.90;99.90
21261;DHT22;10788;47.930;9.766;2022-08-18T02:36:50;15.90;99.90
21261;DHT22;10788;47.930;9.766;2022-08-18T02:39:15;15.90;99.90
21261;DHT22;10788;47.930;9.766;2022-08-18T02:41:41;15.90;99.90
21261;DHT22;10788;47.930;9.766;2022-08-18T02:44:08;15.90;99.90
21261;DHT22;10788;47.930;9.766;2022-08-18T02:46:34;15.90;99.90
21261;DHT22;10788;47.930;9.766;2022-08-18T02:49:01;15.90;99.90
21261;DHT22;10788;47.930;9.766;2022-08-18T02:51:27;15.80;99.90
21261;DHT22;10788;47.930;9.766;2022-08-18T02:53:53;15.80;99.90
21261;DHT22;10788;47.930;9.766;2022-08-18T02:56:26;15.80;99.90
21261;DHT22;10788;47.930;9.766;2022-08-18T02:58:55;15.80;99.90
21261;DHT22;10788;47.930;9.766;2022-08-18T03:01:25;15.80;99.90
21261;DHT22;10788;47.930;9.766;2022-08-18T03:03:53;15.80;99.90
21261;DHT22;10788;47.930;9.766;2022-08-18T03:06:20;15.80;99.90
21261;DHT22;10788;47.930;9.766;2022-08-18T03:08:47;15.70;99.90
21261;DHT22;10788;47.930;9.766;2022-08-18T03:11:20;15.70;99.90
21261;DHT22;10788;47.930;9.766;2022-08-18T03:13:46;15.70;99.90
21261;DHT22;10788;47.930;9.766;2022-08-18T03:16:13;15.70;99.90
21261;DHT22;10788;47.930;9.766;2022-08-18T03:18:40;15.70;99.90
21261;DHT22;10788;47.930;9.766;2022-08-18T03:21:08;15.60;99.90
21261;DHT22;10788;47.930;9.766;2022-08-18T03:23:35;15.60;99.90
21261;DHT22;10788;47.930;9.766;2022-08-18T03:26:01;15.60;99.90
21261;DHT22;10788;47.930;9.766;2022-08-18T03:28:27;15.60;99.90
21261;DHT22;10788;47.930;9.766;2022-08-18T03:30:53;15.60;99.90
21261;DHT22;10788;47.930;9.766;2022-08-18T03:33:20;15.70;99.90
21261;DHT22;10788;47.930;9.766;2022-08-18T03:35:45;15.70;99.90
21261;DHT22;10788;47.930;9.766;2022-08-18T03:38:11;15.70;99.90
21261;DHT22;10788;47.930;9.766;2022-08-18T03:40:37;15.70;99.90
21261;DHT22;10788;47.930;9.766;2022-08-18T03:43:04;15.70;99.90
21261;DHT22;10788;47.930;9.766;2022-08-18T03:45:32;15.70;99.90
21261;DHT22;10788;47.930;9.766;2022-08-18T03:47:59;15.80;99.90
21261;DHT22;10788;47.930;9.766;2022-08-18T03:50:26;15.70;99.90
21261;DHT22;10788;47.930;9.766;2022-08-18T03:52:52;15.60;99.90
21261;DHT22;10788;47.930;9.766;2022-08-18T03:55:19;15.60;99.90
21261;DHT22;10788;47.930;9.766;2022-08-18T03:57:45;15.50;99.90
21261;DHT22;10788;47.930;9.766;2022-08-18T04:00:12;15.50;99.90
21261;DHT22;10788;47.930;9.766;2022-08-18T04:02:38;15.50;99.90
21261;DHT22;10788;47.930;9.766;2022-08-18T04:05:04;15.50;99.90
21261;DHT22;10788;47.930;9.766;2022-08-18T04:07:30;15.40;99.90
21261;DHT22;10788;47.930;9.766;2022-08-18T04:09:56;15.40;99.90
21261;DHT22;10788;47.930;9.766;2022-08-18T04:12:22;15.40;99.90
21261;DHT22;10788;47.930;9.766;2022-08-18T04:14:48;15.40;99.90
21261;DHT22;10788;47.930;9.766;2022-08-18T04:17:16;15.30;99.90
21261;DHT22;10788;47.930;9.766;2022-08-18T04:19:41;15.30;99.90
21261;DHT22;10788;47.930;9.766;2022-08-18T04:22:07;15.30;99.90
21261;DHT22;10788;47.930;9.766;2022-08-18T04:24:33;15.30;99.90
21261;DHT22;10788;47.930;9.766;2022-08-18T04:27:00;15.30;99.90
21261;DHT22;10788;47.930;9.766;2022-08-18T04:29:26;15.30;99.90
21261;DHT22;10788;47.930;9.766;2022-08-18T04:31:53;15.30;99.90
21261;DHT22;10788;47.930;9.766;2022-08-18T04:34:20;15.30;99.90
21261;DHT22;10788;47.930;9.766;2022-08-18T04:36:47;15.30;99.90
21261;DHT22;10788;47.930;9.766;2022-08-18T04:39:13;15.40;99.90
21261;DHT22;10788;47.930;9.766;2022-08-18T04:41:41;15.40;99.90
21261;DHT22;10788;47.930;9.766;2022-08-18T04:44:09;15.50;99.90
21261;DHT22;10788;47.930;9.766;2022-08-18T04:46:41;15.50;99.90
21261;DHT22;10788;47.930;9.766;2022-08-18T04:49:07;15.40;99.90
21261;DHT22;10788;47.930;9.766;2022-08-18T04:51:35;15.50;99.90
21261;DHT22;10788;47.930;9.766;2022-08-18T04:54:00;15.50;99.90
21261;DHT22;10788;47.930;9.766;2022-08-18T04:59:14;15.60;99.90
21261;DHT22;10788;47.930;9.766;2022-08-18T05:01:41;15.70;99.90
21261;DHT22;10788;47.930;9.766;2022-08-18T05:04:10;15.70;99.90
21261;DHT22;10788;47.930;9.766;2022-08-18T05:06:40;15.70;99.90
21261;DHT22;10788;47.930;9.766;2022-08-18T05:09:09;15.70;99.90
21261;DHT22;10788;47.930;9.766;2022-08-18T05:11:36;15.70;99.90
21261;DHT22;10788;47.930;9.766;2022-08-18T05:14:05;15.70;99.90
21261;DHT22;10788;47.930;9.766;2022-08-18T05:16:31;15.80;99.90
21261;DHT22;10788;47.930;9.766;2022-08-18T05:19:00;15.80;99.90
21261;DHT22;10788;47.930;9.766;2022-08-18T05:21:29;15.80;99.90
21261;DHT22;10788;47.930;9.766;2022-08-18T05:23:54;15.80;99.90
21261;DHT22;10788;47.930;9.766;2022-08-18T05:26:20;15.80;99.90
21261;DHT22;10788;47.930;9.766;2022-08-18T05:28:47;15.80;99.90
21261;DHT22;10788;47.930;9.766;2022-08-18T05:31:15;15.70;99.90
21261;DHT22;10788;47.930;9.766;2022-08-18T05:33:42;15.70;99.90
21261;DHT22;10788;47.930;9.766;2022-08-18T05:44:54;16.00;99.90
21261;DHT22;10788;47.930;9.766;2022-08-18T05:47:33;16.00;99.90
21261;DHT22;10788;47.930;9.766;2022-08-18T05:50:08;16.10;99.90
21261;DHT22;10788;47.930;9.766;2022-08-18T05:52:52;16.10;99.90
21261;DHT22;10788;47.930;9.766;2022-08-18T05:55:33;16.20;99.90
21261;DHT22;10788;47.930;9.766;2022-08-18T05:58:35;16.20;99.90
21261;DHT22;10788;47.930;9.766;2022-08-18T06:01:05;16.30;99.90
21261;DHT22;10788;47.930;9.766;2022-08-18T06:03:42;16.30;99.90
21261;DHT22;10788;47.930;9.766;2022-08-18T06:06:16;16.40;99.90
21261;DHT22;10788;47.930;9.766;2022-08-18T06:08:47;16.40;99.90
21261;DHT22;10788;47.930;9.766;2022-08-18T06:11:14;16.50;99.90
21261;DHT22;10788;47.930;9.766;2022-08-18T06:13:42;16.60;99.90
21261;DHT22;10788;47.930;9.766;2022-08-18T06:16:25;16.50;99.90
21261;DHT22;10788;47.930;9.766;2022-08-18T06:21:49;16.50;99.90
21261;DHT22;10788;47.930;9.766;2022-08-18T06:24:24;16.50;99.90
21261;DHT22;10788;47.930;9.766;2022-08-18T06:35:35;16.50;99.90
21261;DHT22;10788;47.930;9.766;2022-08-18T06:43:36;16.70;99.90
21261;DHT22;10788;47.930;9.766;2022-08-18T06:46:19;16.70;99.90
21261;DHT22;10788;47.930;9.766;2022-08-18T06:48:54;16.80;99.90
21261;DHT22;10788;47.930;9.766;2022-08-18T06:51:22;16.80;99.90
21261;DHT22;10788;47.930;9.766;2022-08-18T06:54:02;16.80;99.90
21261;DHT22;10788;47.930;9.766;2022-08-18T06:59:14;16.80;99.90
21261;DHT22;10788;47.930;9.766;2022-08-18T07:01:40;16.90;99.90
21261;DHT22;10788;47.930;9.766;2022-08-18T07:04:06;16.70;99.90
21261;DHT22;10788;47.930;9.766;2022-08-18T07:06:32;16.70;99.90
21261;DHT22;10788;47.930;9.766;2022-08-18T07:09:19;16.80;99.90
21261;DHT22;10788;47.930;9.766;2022-08-18T07:14:24;16.90;99.90
21261;DHT22;10788;47.930;9.766;2022-08-18T07:17:08;17.00;99.90
21261;DHT22;10788;47.930;9.766;2022-08-18T07:19:35;17.00;99.90
21261;DHT22;10788;47.930;9.766;2022-08-18T07:22:13;17.00;99.90
21261;DHT22;10788;47.930;9.766;2022-08-18T07:24:43;17.10;99.90
21261;DHT22;10788;47.930;9.766;2022-08-18T07:27:12;17.20;99.90
21261;DHT22;10788;47.930;9.766;2022-08-18T07:32:35;17.40;99.90
21261;DHT22;10788;47.930;9.766;2022-08-18T07:35:04;17.50;99.90
21261;DHT22;10788;47.930;9.766;2022-08-18T07:37:55;17.60;99.90
21261;DHT22;10788;47.930;9.766;2022-08-18T07:40:40;17.80;99.90
21261;DHT22;10788;47.930;9.766;2022-08-18T07:46:23;18.10;99.90
21261;DHT22;10788;47.930;9.766;2022-08-18T07:48:50;18.10;99.90
21261;DHT22;10788;47.930;9.766;2022-08-18T07:51:27;18.20;99.90
21261;DHT22;10788;47.930;9.766;2022-08-18T07:56:44;18.30;99.90
21261;DHT22;10788;47.930;9.766;2022-08-18T07:59:30;18.40;99.90
21261;DHT22;10788;47.930;9.766;2022-08-18T08:21:51;19.10;99.90
21261;DHT22;10788;47.930;9.766;2022-08-18T08:27:08;19.50;99.90
21261;DHT22;10788;47.930;9.766;2022-08-18T08:32:13;19.80;99.90
21261;DHT22;10788;47.930;9.766;2022-08-18T08:34:49;19.90;99.90
21261;DHT22;10788;47.930;9.766;2022-08-18T08:37:26;19.90;99.90
21261;DHT22;10788;47.930;9.766;2022-08-18T08:40:07;19.90;99.90
21261;DHT22;10788;47.930;9.766;2022-08-18T08:45:20;19.90;99.90
21261;DHT22;10788;47.930;9.766;2022-08-18T08:47:50;19.80;99.90
21261;DHT22;10788;47.930;9.766;2022-08-18T08:50:24;19.80;99.90
21261;DHT22;10788;47.930;9.766;2022-08-18T08:52:53;19.70;99.90
21261;DHT22;10788;47.930;9.766;2022-08-18T09:00:32;20.00;99.90
21261;DHT22;10788;47.930;9.766;2022-08-18T09:03:06;20.30;99.90
21261;DHT22;10788;47.930;9.766;2022-08-18T09:05:55;20.40;99.90
21261;DHT22;10788;47.930;9.766;2022-08-18T09:20:17;21.30;99.90
21261;DHT22;10788;47.930;9.766;2022-08-18T09:22:49;21.40;99.90
21261;DHT22;10788;47.930;9.766;2022-08-18T09:28:22;21.60;99.90
21261;DHT22;10788;47.930;9.766;2022-08-18T09:38:56;21.30;99.90
21261;DHT22;10788;47.930;9.766;2022-08-18T09:41:55;21.30;99.90
21261;DHT22;10788;47.930;9.766;2022-08-18T09:55:04;21.60;99.90
21261;DHT22;10788;47.930;9.766;2022-08-18T09:57:35;21.70;99.90
21261;DHT22;10788;47.930;9.766;2022-08-18T10:16:23;22.20;99.90
21261;DHT22;10788;47.930;9.766;2022-08-18T10:21:25;22.50;99.90
21261;DHT22;10788;47.930;9.766;2022-08-18T10:37:21;22.90;99.90
21261;DHT22;10788;47.930;9.766;2022-08-18T10:45:48;23.20;99.90
21261;DHT22;10788;47.930;9.766;2022-08-18T11:04:32;23.40;99.90
21261;DHT22;10788;47.930;9.766;2022-08-18T11:09:31;23.10;99.90
21261;DHT22;10788;47.930;9.766;2022-08-18T11:12:00;23.10;99.90
21261;DHT22;10788;47.930;9.766;2022-08-18T11:19:59;23.10;99.90
21261;DHT22;10788;47.930;9.766;2022-08-18T11:22:33;23.10;99.90
21261;DHT22;10788;47.930;9.766;2022-08-18T11:25:00;23.00;99.90
21261;DHT22;10788;47.930;9.766;2022-08-18T11:27:29;23.00;99.90
21261;DHT22;10788;47.930;9.766;2022-08-18T11:29:59;22.90;99.90
21261;DHT22;10788;47.930;9.766;2022-08-18T11:32:34;22.90;99.90
21261;DHT22;10788;47.930;9.766;2022-08-18T11:39:58;22.80;99.90
21261;DHT22;10788;47.930;9.766;2022-08-18T11:42:38;23.00;99.90
21261;DHT22;10788;47.930;9.766;2022-08-18T11:45:16;23.20;99.90
21261;DHT22;10788;47.930;9.766;2022-08-18T11:51:07;23.30;99.90
21261;DHT22;10788;47.930;9.766;2022-08-18T11:59:04;23.90;99.90
21261;DHT22;10788;47.930;9.766;2022-08-18T12:07:09;23.60;99.90
21261;DHT22;10788;47.930;9.766;2022-08-18T12:09:45;23.50;99.90
21261;DHT22;10788;47.930;9.766;2022-08-18T12:12:22;23.50;99.90
21261;DHT22;10788;47.930;9.766;2022-08-18T12:17:28;23.10;99.90
21261;DHT22;10788;47.930;9.766;2022-08-18T12:19:54;23.10;99.90
21261;DHT22;10788;47.930;9.766;2022-08-18T12:22:24;23.20;99.90
21261;DHT22;10788;47.930;9.766;2022-08-18T12:24:50;23.30;99.90
21261;DHT22;10788;47.930;9.766;2022-08-18T12:27:20;23.30;99.90
21261;DHT22;10788;47.930;9.766;2022-08-18T12:29:46;23.20;99.90
21261;DHT22;10788;47.930;9.766;2022-08-18T12:32:12;23.20;99.90
21261;DHT22;10788;47.930;9.766;2022-08-18T12:34:38;23.20;99.90
21261;DHT22;10788;47.930;9.766;2022-08-18T12:37:07;23.20;99.90
21261;DHT22;10788;47.930;9.766;2022-08-18T12:39:33;23.20;99.90
21261;DHT22;10788;47.930;9.766;2022-08-18T12:41:59;23.30;99.90
21261;DHT22;10788;47.930;9.766;2022-08-18T12:44:26;23.40;99.90
21261;DHT22;10788;47.930;9.766;2022-08-18T12:46:52;23.30;99.90
21261;DHT22;10788;47.930;9.766;2022-08-18T12:49:23;23.40;99.90
21261;DHT22;10788;47.930;9.766;2022-08-18T12:51:52;23.50;99.90
21261;DHT22;10788;47.930;9.766;2022-08-18T12:54:20;23.30;99.90
21261;DHT22;10788;47.930;9.766;2022-08-18T12:56:49;23.30;99.90
21261;DHT22;10788;47.930;9.766;2022-08-18T12:59:15;23.40;99.90
21261;DHT22;10788;47.930;9.766;2022-08-18T13:01:41;23.50;99.90
21261;DHT22;10788;47.930;9.766;2022-08-18T13:04:07;23.50;99.90
21261;DHT22;10788;47.930;9.766;2022-08-18T13:06:36;23.60;99.90
21261;DHT22;10788;47.930;9.766;2022-08-18T13:09:03;23.60;99.90
21261;DHT22;10788;47.930;9.766;2022-08-18T13:11:29;23.60;99.90
21261;DHT22;10788;47.930;9.766;2022-08-18T13:13:55;23.60;99.90
21261;DHT22;10788;47.930;9.766;2022-08-18T13:16:21;23.60;99.90
21261;DHT22;10788;47.930;9.766;2022-08-18T13:18:47;23.50;99.90
21261;DHT22;10788;47.930;9.766;2022-08-18T13:21:14;23.40;99.90
21261;DHT22;10788;47.930;9.766;2022-08-18T13:23:39;23.40;99.90
21261;DHT22;10788;47.930;9.766;2022-08-18T13:26:07;23.30;99.90
21261;DHT22;10788;47.930;9.766;2022-08-18T13:28:35;23.30;99.90
21261;DHT22;10788;47.930;9.766;2022-08-18T13:31:02;23.20;99.90
21261;DHT22;10788;47.930;9.766;2022-08-18T13:33:28;23.30;99.90
21261;DHT22;10788;47.930;9.766;2022-08-18T13:35:54;23.30;99.90
21261;DHT22;10788;47.930;9.766;2022-08-18T13:38:20;23.30;99.90
21261;DHT22;10788;47.930;9.766;2022-08-18T13:40:52;23.30;99.90
21261;DHT22;10788;47.930;9.766;2022-08-18T13:43:20;23.30;99.90
21261;DHT22;10788;47.930;9.766;2022-08-18T13:45:47;23.30;99.90
21261;DHT22;10788;47.930;9.766;2022-08-18T13:48:15;23.30;99.90
21261;DHT22;10788;47.930;9.766;2022-08-18T13:50:41;23.30;99.90
21261;DHT22;10788;47.930;9.766;2022-08-18T13:53:13;23.20;99.90
21261;DHT22;10788;47.930;9.766;2022-08-18T13:55:39;23.20;99.90
21261;DHT22;10788;47.930;9.766;2022-08-18T13:58:04;23.20;99.90
21261;DHT22;10788;47.930;9.766;2022-08-18T14:00:30;23.20;99.90
21261;DHT22;10788;47.930;9.766;2022-08-18T14:02:58;23.10;99.90
21261;DHT22;10788;47.930;9.766;2022-08-18T14:05:25;23.10;99.90
21261;DHT22;10788;47.930;9.766;2022-08-18T14:07:52;23.00;99.90
21261;DHT22;10788;47.930;9.766;2022-08-18T14:10:18;23.00;99.90
21261;DHT22;10788;47.930;9.766;2022-08-18T14:12:44;23.00;99.90
21261;DHT22;10788;47.930;9.766;2022-08-18T14:15:13;23.00;99.90
21261;DHT22;10788;47.930;9.766;2022-08-18T14:17:39;22.90;99.90
21261;DHT22;10788;47.930;9.766;2022-08-18T14:20:06;22.90;99.90
21261;DHT22;10788;47.930;9.766;2022-08-18T14:22:53;22.90;99.90
21261;DHT22;10788;47.930;9.766;2022-08-18T14:25:39;22.90;99.90
21261;DHT22;10788;47.930;9.766;2022-08-18T14:28:23;22.80;99.90
21261;DHT22;10788;47.930;9.766;2022-08-18T14:30:49;22.80;99.90
21261;DHT22;10788;47.930;9.766;2022-08-18T14:33:18;22.80;99.90
21261;DHT22;10788;47.930;9.766;2022-08-18T14:35:45;22.70;99.90
21261;DHT22;10788;47.930;9.766;2022-08-18T14:38:12;22.70;99.90
21261;DHT22;10788;47.930;9.766;2022-08-18T14:40:41;22.60;99.90
21261;DHT22;10788;47.930;9.766;2022-08-18T14:43:07;22.70;99.90
21261;DHT22;10788;47.930;9.766;2022-08-18T14:45:34;22.70;99.90
21261;DHT22;10788;47.930;9.766;2022-08-18T14:48:01;22.70;99.90
21261;DHT22;10788;47.930;9.766;2022-08-18T14:50:26;22.70;99.90
21261;DHT22;10788;47.930;9.766;2022-08-18T14:52:52;22.80;99.90
21261;DHT22;10788;47.930;9.766;2022-08-18T14:55:18;22.80;99.90
21261;DHT22;10788;47.930;9.766;2022-08-18T14:57:44;22.70;99.90
21261;DHT22;10788;47.930;9.766;2022-08-18T15:00:13;22.60;99.90
21261;DHT22;10788;47.930;9.766;2022-08-18T15:02:42;22.70;99.90
21261;DHT22;10788;47.930;9.766;2022-08-18T15:05:09;22.70;99.90
21261;DHT22;10788;47.930;9.766;2022-08-18T15:07:35;22.70;99.90
21261;DHT22;10788;47.930;9.766;2022-08-18T15:10:09;22.80;99.90
21261;DHT22;10788;47.930;9.766;2022-08-18T15:12:35;22.80;99.90
21261;DHT22;10788;47.930;9.766;2022-08-18T15:15:02;22.80;99.90
21261;DHT22;10788;47.930;9.766;2022-08-18T15:17:28;22.80;99.90
21261;DHT22;10788;47.930;9.766;2022-08-18T15:19:54;22.80;99.90
21261;DHT22;10788;47.930;9.766;2022-08-18T15:22:20;22.80;99.90
21261;DHT22;10788;47.930;9.766;2022-08-18T15:25:06;22.80;99.90
21261;DHT22;10788;47.930;9.766;2022-08-18T15:27:51;22.80;99.90
21261;DHT22;10788;47.930;9.766;2022-08-18T15:30:17;22.70;99.90
21261;DHT22;10788;47.930;9.766;2022-08-18T15:32:46;22.60;99.90
21261;DHT22;10788;47.930;9.766;2022-08-18T15:35:13;22.50;99.90
21261;DHT22;10788;47.930;9.766;2022-08-18T15:37:43;22.40;99.90
21261;DHT22;10788;47.930;9.766;2022-08-18T15:42:37;22.20;99.90
21261;DHT22;10788;47.930;9.766;2022-08-18T15:45:04;22.10;99.90
21261;DHT22;10788;47.930;9.766;2022-08-18T15:47:31;22.00;99.90
21261;DHT22;10788;47.930;9.766;2022-08-18T15:50:00;22.00;99.90
21261;DHT22;10788;47.930;9.766;2022-08-18T15:52:26;21.90;99.90
21261;DHT22;10788;47.930;9.766;2022-08-18T15:54:52;21.90;99.90
21261;DHT22;10788;47.930;9.766;2022-08-18T15:57:19;21.70;99.90
21261;DHT22;10788;47.930;9.766;2022-08-18T15:59:44;21.60;99.90
21261;DHT22;10788;47.930;9.766;2022-08-18T16:02:11;21.50;99.90
21261;DHT22;10788;47.930;9.766;2022-08-18T16:04:38;21.30;99.90
21261;DHT22;10788;47.930;9.766;2022-08-18T16:07:05;21.30;99.90
21261;DHT22;10788;47.930;9.766;2022-08-18T16:09:31;21.20;99.90
21261;DHT22;10788;47.930;9.766;2022-08-18T16:11:57;21.20;99.90
21261;DHT22;10788;47.930;9.766;2022-08-18T16:14:23;21.10;99.90
21261;DHT22;10788;47.930;9.766;2022-08-18T16:16:49;21.00;99.90
21261;DHT22;10788;47.930;9.766;2022-08-18T16:19:14;20.90;99.90
21261;DHT22;10788;47.930;9.766;2022-08-18T16:21:40;20.90;99.90
21261;DHT22;10788;47.930;9.766;2022-08-18T16:24:06;20.80;99.90
21261;DHT22;10788;47.930;9.766;2022-08-18T16:26:32;20.70;99.90
21261;DHT22;10788;47.930;9.766;2022-08-18T16:28:58;20.70;99.90
21261;DHT22;10788;47.930;9.766;2022-08-18T16:31:24;20.60;99.90
21261;DHT22;10788;47.930;9.766;2022-08-18T16:33:52;20.50;99.90
21261;DHT22;10788;47.930;9.766;2022-08-18T16:36:18;20.50;99.90
21261;DHT22;10788;47.930;9.766;2022-08-18T16:38:44;20.50;99.90
21261;DHT22;10788;47.930;9.766;2022-08-18T16:41:13;20.50;99.90
21261;DHT22;10788;47.930;9.766;2022-08-18T16:43:40;20.50;99.90
21261;DHT22;10788;47.930;9.766;2022-08-18T16:46:13;20.30;99.90
21261;DHT22;10788;47.930;9.766;2022-08-18T16:48:40;20.30;99.90
21261;DHT22;10788;47.930;9.766;2022-08-18T16:51:06;20.20;99.90
21261;DHT22;10788;47.930;9.766;2022-08-18T16:53:32;20.00;99.90
21261;DHT22;10788;47.930;9.766;2022-08-18T16:55:57;20.00;99.90
21261;DHT22;10788;47.930;9.766;2022-08-18T16:58:23;20.00;99.90
21261;DHT22;10788;47.930;9.766;2022-08-18T17:01:07;20.00;99.90
21261;DHT22;10788;47.930;9.766;2022-08-18T17:03:51;19.90;99.90
21261;DHT22;10788;47.930;9.766;2022-08-18T17:06:34;19.90;99.90
21261;DHT22;10788;47.930;9.766;2022-08-18T17:09:00;19.80;99.90
21261;DHT22;10788;47.930;9.766;2022-08-18T17:11:26;19.70;99.90
21261;DHT22;10788;47.930;9.766;2022-08-18T17:13:54;19.70;99.90
21261;DHT22;10788;47.930;9.766;2022-08-18T17:16:22;19.50;99.90
21261;DHT22;10788;47.930;9.766;2022-08-18T17:18:49;19.60;99.90
21261;DHT22;10788;47.930;9.766;2022-08-18T17:21:18;19.50;99.90
21261;DHT22;10788;47.930;9.766;2022-08-18T17:23:45;19.40;99.90
21261;DHT22;10788;47.930;9.766;2022-08-18T17:26:18;19.30;99.90
21261;DHT22;10788;47.930;9.766;2022-08-18T17:28:51;19.20;99.90
21261;DHT22;10788;47.930;9.766;2022-08-18T17:31:20;19.10;99.90
21261;DHT22;10788;47.930;9.766;2022-08-18T17:33:47;19.20;99.90
21261;DHT22;10788;47.930;9.766;2022-08-18T17:36:20;19.20;99.90
21261;DHT22;10788;47.930;9.766;2022-08-18T17:38:52;19.10;99.90
21261;DHT22;10788;47.930;9.766;2022-08-18T17:41:19;19.00;99.90
21261;DHT22;10788;47.930;9.766;2022-08-18T17:43:46;19.00;99.90
21261;DHT22;10788;47.930;9.766;2022-08-18T17:46:21;19.00;99.90
21261;DHT22;10788;47.930;9.766;2022-08-18T17:51:46;18.80;99.90
21261;DHT22;10788;47.930;9.766;2022-08-18T17:54:37;18.70;99.90
21261;DHT22;10788;47.930;9.766;2022-08-18T17:57:36;18.70;99.90
21261;DHT22;10788;47.930;9.766;2022-08-18T18:00:13;18.50;99.90
21261;DHT22;10788;47.930;9.766;2022-08-18T18:02:42;18.50;99.90
21261;DHT22;10788;47.930;9.766;2022-08-18T18:05:11;18.60;99.90
21261;DHT22;10788;47.930;9.766;2022-08-18T18:10:44;18.50;99.90
21261;DHT22;10788;47.930;9.766;2022-08-18T18:15:54;18.60;99.90
21261;DHT22;10788;47.930;9.766;2022-08-18T18:18:25;18.50;99.90
21261;DHT22;10788;47.930;9.766;2022-08-18T18:21:04;18.50;99.90
21261;DHT22;10788;47.930;9.766;2022-08-18T18:23:37;18.50;99.90
21261;DHT22;10788;47.930;9.766;2022-08-18T18:29:28;18.40;99.90
21261;DHT22;10788;47.930;9.766;2022-08-18T18:37:39;18.30;99.90
21261;DHT22;10788;47.930;9.766;2022-08-18T18:40:25;18.40;99.90
21261;DHT22;10788;47.930;9.766;2022-08-18T18:42:52;18.40;99.90
21261;DHT22;10788;47.930;9.766;2022-08-18T18:50:37;18.30;99.90
21261;DHT22;10788;47.930;9.766;2022-08-18T18:53:18;18.30;99.90
21261;DHT22;10788;47.930;9.766;2022-08-18T18:59:24;18.20;99.90
21261;DHT22;10788;47.930;9.766;2022-08-18T19:04:17;18.20;99.90
21261;DHT22;10788;47.930;9.766;2022-08-18T19:06:56;18.20;99.90
21261;DHT22;10788;47.930;9.766;2022-08-18T19:09:30;18.20;99.90
21261;DHT22;10788;47.930;9.766;2022-08-18T19:12:23;18.20;99.90
21261;DHT22;10788;47.930;9.766;2022-08-18T19:15:09;18.10;99.90
21261;DHT22;10788;47.930;9.766;2022-08-18T19:20:19;18.00;99.90
21261;DHT22;10788;47.930;9.766;2022-08-18T19:25:40;18.10;99.90
21261;DHT22;10788;47.930;9.766;2022-08-18T19:30:33;18.00;99.90
21261;DHT22;10788;47.930;9.766;2022-08-18T19:33:03;18.00;99.90
21261;DHT22;10788;47.930;9.766;2022-08-18T19:40:54;17.80;99.90
21261;DHT22;10788;47.930;9.766;2022-08-18T19:46:46;17.60;99.90
21261;DHT22;10788;47.930;9.766;2022-08-18T19:49:25;17.60;99.90
21261;DHT22;10788;47.930;9.766;2022-08-18T19:51:58;17.70;99.90
21261;DHT22;10788;47.930;9.766;2022-08-18T20:06:42;17.40;99.90
21261;DHT22;10788;47.930;9.766;2022-08-18T20:14:17;17.40;99.90